Time;durP1;ratioP1;P1;durP2;ratioP2;P2;SDS_P1;SDS_P2;PMS_P1;PMS_P2;Temp;Humidity;BMP_temperature;BMP_pressure;BME280_temperature;BME280_humidity;BME280_pressure;Samples;Min_cycle;Max_cycle;Signal;HPM_P1;HPM_P2
2022/01/25 00:24:53;;;;;;;;;;;;;;;11.03;100.00;103320.13;5137391;27;19926;-53
2022/01/25 00:32:13;;;;;;;;;;;;;;;11.17;100.00;103326.06;5154742;27;19921;-53
2022/01/25 00:34:38;;;;;;;;;;;;;;;11.11;100.00;103326.63;5136096;27;20306;-51
2022/01/25 00:37:04;;;;;;;;;;;;;;;11.16;100.00;103335.94;5154839;27;19919;-49
2022/01/25 00:39:30;;;;;;;;;;;;;;;11.12;100.00;103334.50;5154619;27;19971;-51
2022/01/25 00:41:55;;;;;;;;;;;;;;;11.10;100.00;103322.28;5142011;27;19919;-48
2022/01/25 00:44:21;;;;;;;;;;;;;;;11.07;100.00;103320.69;5154277;27;19926;-47
2022/01/25 00:46:47;;;;;;;;;;;;;;;10.93;100.00;103324.63;5154653;27;19918;-47
2022/01/25 00:49:20;;;;;;;;;;;;;;;10.96;100.00;103327.00;5110103;27;19926;-51
2022/01/25 00:54:26;;;;;;;;;;;;;;;10.95;100.00;103328.00;5110349;27;19915;-50
2022/01/25 00:56:51;;;;;;;;;;;;;;;10.90;100.00;103327.56;5154440;27;20014;-47
2022/01/25 00:59:18;;;;;;;;;;;;;;;10.83;100.00;103326.41;5135117;27;19950;-51
2022/01/25 01:01:45;;;;;;;;;;;;;;;10.82;100.00;103330.06;5155329;27;20479;-54
2022/01/25 01:04:11;;;;;;;;;;;;;;;10.78;100.00;103323.28;5155275;27;19918;-52
2022/01/25 01:06:38;;;;;;;;;;;;;;;10.67;100.00;103325.09;5136650;27;19919;-52
2022/01/25 01:09:05;;;;;;;;;;;;;;;10.63;100.00;103315.66;5155326;27;19919;-46
2022/01/25 01:11:38;;;;;;;;;;;;;;;10.76;100.00;103308.22;5136646;27;19919;-51
2022/01/25 01:40:51;;;;;;;;;;;;;;;10.96;100.00;103326.19;5120002;27;19943;-48
2022/01/25 01:46:01;;;;;;;;;;;;;;;11.04;100.00;103321.81;5154571;27;19919;-51
2022/01/25 01:48:33;;;;;;;;;;;;;;;10.93;100.00;103324.63;5154403;27;20005;-49
2022/01/25 01:51:05;;;;;;;;;;;;;;;10.84;100.00;103320.06;5137170;27;20018;-49
2022/01/25 01:53:31;;;;;;;;;;;;;;;10.86;100.00;103318.94;5154874;27;19922;-53
2022/01/25 01:55:57;;;;;;;;;;;;;;;10.89;100.00;103312.50;5149703;27;20010;-52
2022/01/25 01:58:23;;;;;;;;;;;;;;;10.94;100.00;103314.72;5133747;27;19950;-54
2022/01/25 02:00:49;;;;;;;;;;;;;;;10.87;100.00;103307.25;5134566;27;19998;-51
2022/01/25 02:03:14;;;;;;;;;;;;;;;10.85;100.00;103297.69;5138162;27;19919;-55
2022/01/25 02:05:40;;;;;;;;;;;;;;;10.92;100.00;103301.50;5155491;27;20274;-50
2022/01/25 02:08:07;;;;;;;;;;;;;;;10.71;100.00;103305.09;5136726;27;20327;-50
2022/01/25 02:10:33;;;;;;;;;;;;;;;10.91;100.00;103299.81;5146653;27;19923;-52
2022/01/25 02:12:58;;;;;;;;;;;;;;;10.89;100.00;103299.94;5148096;27;19922;-52
2022/01/25 02:15:26;;;;;;;;;;;;;;;10.89;100.00;103301.78;5119567;27;19915;-49
2022/01/25 02:23:18;;;;;;;;;;;;;;;10.81;100.00;103302.47;5155326;27;19915;-51
2022/01/25 02:25:53;;;;;;;;;;;;;;;10.83;100.00;103295.13;5136906;27;19915;-48
2022/01/25 02:28:18;;;;;;;;;;;;;;;10.82;100.00;103292.59;5154435;27;20331;-48
2022/01/25 02:30:44;;;;;;;;;;;;;;;10.63;98.68;103291.56;5119222;27;19955;-47
2022/01/25 02:33:09;;;;;;;;;;;;;;;10.67;93.37;103292.97;5153850;27;19915;-47
2022/01/25 02:35:35;;;;;;;;;;;;;;;10.81;92.24;103296.25;5136319;27;20355;-50
2022/01/25 02:38:01;;;;;;;;;;;;;;;10.82;90.20;103293.44;5154831;27;19911;-53
2022/01/25 02:40:26;;;;;;;;;;;;;;;10.82;91.85;103289.91;5154879;27;20385;-48
2022/01/25 02:42:53;;;;;;;;;;;;;;;10.92;90.95;103290.78;5136256;27;20010;-49
2022/01/25 02:45:18;;;;;;;;;;;;;;;10.88;92.04;103294.72;5136042;27;19923;-48
2022/01/25 02:50:28;;;;;;;;;;;;;;;10.82;95.46;103284.56;5154763;27;20309;-47
2022/01/25 02:52:53;;;;;;;;;;;;;;;10.75;95.88;103287.78;5154528;27;19915;-48
2022/01/25 02:55:18;;;;;;;;;;;;;;;10.81;96.01;103293.56;5154200;27;20328;-51
2022/01/25 02:57:45;;;;;;;;;;;;;;;10.83;95.81;103289.78;5156532;27;19911;-52
2022/01/25 03:00:10;;;;;;;;;;;;;;;10.86;96.27;103280.66;5158617;27;20039;-50
2022/01/25 03:02:36;;;;;;;;;;;;;;;10.88;96.58;103292.06;5140073;27;20010;-52
2022/01/25 03:05:01;;;;;;;;;;;;;;;10.96;95.98;103286.03;5140029;27;20366;-47
2022/01/25 03:07:27;;;;;;;;;;;;;;;10.94;96.71;103285.28;5158155;27;19922;-51
2022/01/25 03:09:53;;;;;;;;;;;;;;;10.95;97.33;103289.66;5158551;27;19926;-51
2022/01/25 03:12:29;;;;;;;;;;;;;;;10.75;97.96;103279.75;5140276;27;19915;-51
2022/01/25 03:17:53;;;;;;;;;;;;;;;10.82;93.58;103281.88;5126069;27;19915;-50
2022/01/25 03:21:15;;;;;;;;;;;;;;;10.86;90.77;103277.97;5140026;27;19914;-50
2022/01/25 03:23:17;;;;;;;;;;;;;;;10.89;89.42;103277.69;5146991;27;19918;-49
2022/01/25 03:25:43;;;;;;;;;;;;;;;10.86;88.79;103276.13;5158114;27;19926;-49
2022/01/25 03:28:08;;;;;;;;;;;;;;;10.95;88.50;103271.78;5158145;27;19915;-49
2022/01/25 03:30:34;;;;;;;;;;;;;;;10.97;89.43;103272.47;5158480;27;20378;-51
2022/01/25 03:33:00;;;;;;;;;;;;;;;10.91;92.60;103265.00;5157713;27;19915;-49
2022/01/25 03:35:25;;;;;;;;;;;;;;;10.87;95.59;103269.78;5158236;27;19919;-49
2022/01/25 03:37:50;;;;;;;;;;;;;;;10.85;98.38;103265.56;5157860;27;19955;-48
2022/01/25 03:40:16;;;;;;;;;;;;;;;10.58;100.00;103273.22;5157820;27;19919;-51
2022/01/25 03:42:41;;;;;;;;;;;;;;;10.65;100.00;103273.53;5157275;27;19922;-52
2022/01/25 03:45:08;;;;;;;;;;;;;;;10.60;100.00;103275.75;5139051;27;19922;-49
2022/01/25 03:47:56;;;;;;;;;;;;;;;10.64;100.00;103271.84;5157473;27;20328;-49
2022/01/25 03:50:22;;;;;;;;;;;;;;;10.66;100.00;103280.59;5157736;27;19919;-50
2022/01/25 03:52:47;;;;;;;;;;;;;;;10.60;100.00;103271.25;5157385;27;19922;-50
2022/01/25 03:55:12;;;;;;;;;;;;;;;10.64;100.00;103274.53;5157355;27;19923;-50
2022/01/25 03:57:38;;;;;;;;;;;;;;;10.56;100.00;103271.66;5157106;27;20002;-49
2022/01/25 04:00:04;;;;;;;;;;;;;;;10.51;100.00;103274.75;5157496;27;19987;-47
2022/01/25 04:02:40;;;;;;;;;;;;;;;10.59;100.00;103279.41;5139905;27;20009;-51
2022/01/25 04:05:09;;;;;;;;;;;;;;;10.56;100.00;103277.88;5157074;27;19932;-50
2022/01/25 04:07:45;;;;;;;;;;;;;;;10.62;97.81;103268.47;5157040;27;19919;-48
2022/01/25 04:10:12;;;;;;;;;;;;;;;10.64;97.10;103271.84;5138521;27;19915;-50
2022/01/25 04:12:38;;;;;;;;;;;;;;;10.59;99.60;103266.91;5156774;27;19919;-48
2022/01/25 04:15:04;;;;;;;;;;;;;;;10.42;100.00;103271.06;5138840;27;19987;-52
2022/01/25 04:17:29;;;;;;;;;;;;;;;10.67;100.00;103260.88;5156962;27;19914;-51
2022/01/25 04:20:13;;;;;;;;;;;;;;;10.75;100.00;103265.53;5157235;27;19923;-56
2022/01/25 04:25:23;;;;;;;;;;;;;;;10.63;100.00;103274.66;5138589;27;20071;-50
2022/01/25 04:27:48;;;;;;;;;;;;;;;10.76;100.00;103270.75;5156760;27;20374;-52
2022/01/25 04:30:13;;;;;;;;;;;;;;;10.72;100.00;103277.34;5157027;27;20366;-52
2022/01/25 04:32:46;;;;;;;;;;;;;;;10.80;96.70;103281.16;5156593;27;19915;-51
2022/01/25 04:54:20;;;;;;;;;;;;;;;10.59;84.79;103263.34;5156338;27;19922;-48
2022/01/25 04:56:55;;;;;;;;;;;;;;;10.27;86.06;103259.00;5155962;27;19927;-53
2022/01/25 05:01:49;;;;;;;;;;;;;;;10.51;85.47;103258.72;5156039;27;19911;-50
2022/01/25 05:04:22;;;;;;;;;;;;;;;10.57;85.82;103251.94;5156302;27;19929;-53
2022/01/25 05:06:50;;;;;;;;;;;;;;;10.56;86.16;103253.78;5155974;27;19946;-54
2022/01/25 05:09:16;;;;;;;;;;;;;;;10.32;85.57;103251.41;5137434;27;19923;-50
2022/01/25 05:11:46;;;;;;;;;;;;;;;10.40;83.96;103256.97;5155484;27;20290;-52
2022/01/25 05:14:20;;;;;;;;;;;;;;;10.55;82.79;103257.44;5155911;27;19923;-52
2022/01/25 05:16:51;;;;;;;;;;;;;;;10.50;81.55;103250.81;5155745;27;20348;-49
2022/01/25 05:24:28;;;;;;;;;;;;;;;10.45;85.04;103252.06;5141335;27;19925;-52
2022/01/25 05:26:54;;;;;;;;;;;;;;;10.48;87.35;103250.94;5155306;27;19997;-53
2022/01/25 05:29:21;;;;;;;;;;;;;;;10.51;88.43;103255.19;5155774;27;19971;-51
2022/01/25 05:31:46;;;;;;;;;;;;;;;10.50;86.73;103253.47;5153325;27;20316;-53
2022/01/25 05:34:11;;;;;;;;;;;;;;;10.49;87.59;103260.66;5143779;27;20328;-51
2022/01/25 05:36:38;;;;;;;;;;;;;;;10.52;87.82;103256.88;5154660;27;19911;-50
2022/01/25 05:39:10;;;;;;;;;;;;;;;10.54;87.61;103252.22;5137094;27;19922;-52
2022/01/25 05:41:35;;;;;;;;;;;;;;;10.51;87.41;103249.81;5155088;27;19919;-51
2022/01/25 05:49:24;;;;;;;;;;;;;;;10.54;85.47;103255.75;5134738;27;19920;-53
2022/01/25 05:51:49;;;;;;;;;;;;;;;10.60;84.46;103255.22;5134628;27;19951;-52
2022/01/25 05:54:15;;;;;;;;;;;;;;;10.61;82.93;103250.72;5134539;27;19915;-49
2022/01/25 05:56:40;;;;;;;;;;;;;;;10.50;83.86;103257.00;5115646;27;19920;-54
2022/01/25 05:59:06;;;;;;;;;;;;;;;10.35;82.06;103264.50;5134306;27;19915;-52
2022/01/25 06:01:32;;;;;;;;;;;;;;;10.16;84.13;103257.25;5134491;27;19920;-51
2022/01/25 06:03:58;;;;;;;;;;;;;;;10.37;82.09;103246.50;5134158;27;19999;-50
2022/01/25 06:06:24;;;;;;;;;;;;;;;10.38;82.52;103252.69;5116082;27;20024;-49
2022/01/25 06:08:49;;;;;;;;;;;;;;;10.52;82.36;103251.50;5134419;27;19915;-49
2022/01/25 06:11:14;;;;;;;;;;;;;;;10.56;83.67;103259.13;5133811;27;19978;-53
2022/01/25 06:13:40;;;;;;;;;;;;;;;10.56;84.41;103252.94;5134073;27;19919;-56
2022/01/25 06:16:05;;;;;;;;;;;;;;;10.58;85.97;103261.66;5098525;28;20379;-50
2022/01/25 06:18:31;;;;;;;;;;;;;;;10.59;87.57;103256.19;5116128;27;19919;-48
2022/01/25 06:20:56;;;;;;;;;;;;;;;10.60;89.15;103265.03;5134148;27;20323;-48
2022/01/25 06:23:21;;;;;;;;;;;;;;;10.57;90.51;103257.31;5115517;28;19920;-48
2022/01/25 06:25:47;;;;;;;;;;;;;;;10.63;90.04;103259.44;5140477;27;19919;-49
2022/01/25 06:28:13;;;;;;;;;;;;;;;10.61;89.81;103256.06;5134218;27;20319;-51
2022/01/25 06:30:39;;;;;;;;;;;;;;;10.52;88.64;103259.53;5110405;27;19927;-51
2022/01/25 06:33:07;;;;;;;;;;;;;;;10.58;87.94;103243.78;5138625;27;19918;-51
2022/01/25 06:35:34;;;;;;;;;;;;;;;10.37;89.74;103246.50;5158936;27;20009;-53
2022/01/25 06:37:59;;;;;;;;;;;;;;;10.48;89.85;103250.94;5158778;27;19915;-51
2022/01/25 06:40:25;;;;;;;;;;;;;;;10.44;90.66;103242.34;5155751;27;19978;-50
2022/01/25 06:42:50;;;;;;;;;;;;;;;10.53;89.64;103253.22;5158059;27;19926;-53
2022/01/25 06:45:19;;;;;;;;;;;;;;;10.51;89.20;103256.03;5139082;27;19910;-51
2022/01/25 06:47:45;;;;;;;;;;;;;;;10.49;89.61;103257.97;5144262;27;20022;-52
2022/01/25 06:50:11;;;;;;;;;;;;;;;10.44;88.98;103253.03;5146586;27;20211;-54
2022/01/25 06:52:38;;;;;;;;;;;;;;;10.46;88.24;103258.25;5148510;27;19915;-54
2022/01/25 06:55:08;;;;;;;;;;;;;;;10.42;88.08;103255.00;5150338;27;19915;-52
2022/01/25 06:57:33;;;;;;;;;;;;;;;10.45;87.19;103256.56;5149163;27;20413;-50
2022/01/25 06:59:59;;;;;;;;;;;;;;;10.46;86.82;103264.47;5150028;27;19919;-53
2022/01/25 07:02:24;;;;;;;;;;;;;;;10.52;86.86;103265.75;5146496;27;19926;-53
2022/01/25 07:04:49;;;;;;;;;;;;;;;10.38;87.27;103277.63;5151818;27;19922;-55
2022/01/25 07:07:15;;;;;;;;;;;;;;;10.38;87.50;103277.63;5148641;27;19919;-54
2022/01/25 07:09:40;;;;;;;;;;;;;;;10.51;85.34;103265.88;5143575;27;19998;-52
2022/01/25 07:12:06;;;;;;;;;;;;;;;10.39;85.26;103271.31;5143947;27;19916;-49
2022/01/25 07:14:31;;;;;;;;;;;;;;;10.51;84.23;103271.22;5132740;27;19927;-53
2022/01/25 07:16:57;;;;;;;;;;;;;;;10.52;83.60;103267.56;5133366;27;19918;-52
2022/01/25 07:19:22;;;;;;;;;;;;;;;10.47;83.63;103268.81;5150446;27;19922;-51
2022/01/25 07:21:47;;;;;;;;;;;;;;;10.42;83.79;103284.44;5143727;27;20283;-51
2022/01/25 07:24:13;;;;;;;;;;;;;;;10.46;82.07;103280.50;5148270;27;19966;-53
2022/01/25 07:26:38;;;;;;;;;;;;;;;10.55;81.36;103276.19;5146128;27;19919;-54
2022/01/25 07:29:03;;;;;;;;;;;;;;;10.32;83.10;103281.69;5150209;27;19969;-53
2022/01/25 07:31:29;;;;;;;;;;;;;;;10.40;83.00;103285.50;5143921;27;19959;-55
2022/01/25 07:33:54;;;;;;;;;;;;;;;10.33;83.60;103282.53;5112326;27;20371;-55
2022/01/25 07:36:20;;;;;;;;;;;;;;;10.43;83.25;103280.78;5150555;27;19979;-54
2022/01/25 07:38:45;;;;;;;;;;;;;;;10.43;83.50;103287.94;5140628;27;19927;-55
2022/01/25 07:41:10;;;;;;;;;;;;;;;10.39;83.03;103289.16;5140359;27;19919;-51
2022/01/25 07:43:36;;;;;;;;;;;;;;;10.29;83.76;103286.44;5145555;27;19922;-52
2022/01/25 07:46:04;;;;;;;;;;;;;;;10.21;84.62;103286.28;5149917;27;20385;-54
2022/01/25 07:48:30;;;;;;;;;;;;;;;10.04;87.83;103288.56;5144922;27;19916;-52
2022/01/25 07:50:55;;;;;;;;;;;;;;;10.19;87.90;103292.59;5143768;27;20054;-50
2022/01/25 07:53:21;;;;;;;;;;;;;;;10.23;85.70;103295.00;5144744;27;19926;-52
2022/01/25 07:55:46;;;;;;;;;;;;;;;10.24;83.26;103294.84;5145958;27;20381;-52
2022/01/25 07:58:12;;;;;;;;;;;;;;;10.26;82.79;103292.06;5144295;27;19926;-48
2022/01/25 08:00:37;;;;;;;;;;;;;;;10.22;82.28;103296.00;5144545;27;20440;-47
2022/01/25 08:03:03;;;;;;;;;;;;;;;10.27;82.12;103294.63;5143209;27;19995;-51
2022/01/25 08:05:29;;;;;;;;;;;;;;;10.37;82.34;103294.63;5143818;27;20164;-50
2022/01/25 08:07:55;;;;;;;;;;;;;;;10.29;83.89;103289.97;5144248;27;19919;-46
2022/01/25 08:10:21;;;;;;;;;;;;;;;10.34;82.67;103289.56;5129656;27;19964;-49
2022/01/25 08:12:47;;;;;;;;;;;;;;;10.32;82.55;103295.06;5114157;27;20274;-53
2022/01/25 08:15:14;;;;;;;;;;;;;;;10.31;82.46;103303.22;5146731;27;19921;-55
2022/01/25 08:17:39;;;;;;;;;;;;;;;10.34;81.84;103297.59;5142714;27;19919;-51
2022/01/25 08:20:06;;;;;;;;;;;;;;;10.31;81.53;103293.38;5123436;27;19926;-49
2022/01/25 08:22:33;;;;;;;;;;;;;;;10.25;81.91;103290.38;5124841;27;19950;-51
2022/01/25 08:24:58;;;;;;;;;;;;;;;10.29;83.18;103302.50;5143204;27;19930;-47
2022/01/25 08:27:24;;;;;;;;;;;;;;;10.26;83.21;103295.56;5111753;27;19915;-48
2022/01/25 08:29:50;;;;;;;;;;;;;;;10.09;84.83;103288.19;5123204;27;20299;-55
2022/01/25 08:32:16;;;;;;;;;;;;;;;10.09;83.15;103282.84;5143824;27;19929;-50
2022/01/25 08:34:41;;;;;;;;;;;;;;;10.13;83.94;103284.25;5141541;27;19920;-49
2022/01/25 08:37:06;;;;;;;;;;;;;;;10.06;84.72;103283.09;5144266;27;19915;-52
2022/01/25 08:39:32;;;;;;;;;;;;;;;10.18;83.51;103288.25;5148292;27;19918;-49
2022/01/25 08:41:57;;;;;;;;;;;;;;;10.24;82.67;103286.84;5127079;27;20264;-56
2022/01/25 08:44:23;;;;;;;;;;;;;;;10.33;81.28;103286.06;5147201;27;19922;-51
2022/01/25 08:46:49;;;;;;;;;;;;;;;10.29;80.42;103287.31;5141628;27;19998;-54
2022/01/25 08:49:14;;;;;;;;;;;;;;;10.17;80.35;103291.91;5145462;27;19922;-52
2022/01/25 08:51:40;;;;;;;;;;;;;;;10.33;79.45;103290.53;5128246;27;19941;-51
2022/01/25 08:54:06;;;;;;;;;;;;;;;10.22;79.49;103293.31;5142264;27;20010;-50
2022/01/25 08:56:31;;;;;;;;;;;;;;;10.08;78.95;103291.84;5135537;27;20010;-53
2022/01/25 08:58:57;;;;;;;;;;;;;;;10.08;79.14;103303.34;5147563;27;20263;-52
2022/01/25 09:01:23;;;;;;;;;;;;;;;10.10;79.24;103297.91;5136511;27;19919;-51
2022/01/25 09:03:49;;;;;;;;;;;;;;;10.09;79.90;103302.38;5135305;27;20418;-52
2022/01/25 09:06:15;;;;;;;;;;;;;;;10.10;78.84;103304.06;5135086;27;19926;-52
2022/01/25 09:08:40;;;;;;;;;;;;;;;10.06;79.70;103310.66;5155094;27;19998;-54
2022/01/25 09:11:06;;;;;;;;;;;;;;;10.13;81.15;103311.00;5136792;27;19967;-53
2022/01/25 09:13:33;;;;;;;;;;;;;;;10.17;81.74;103305.25;5137465;27;19982;-51
2022/01/25 09:15:59;;;;;;;;;;;;;;;10.27;80.85;103309.81;5150500;27;19911;-53
2022/01/25 09:18:24;;;;;;;;;;;;;;;10.26;80.78;103305.44;5116613;27;20006;-51
2022/01/25 09:20:49;;;;;;;;;;;;;;;10.50;78.20;103312.34;5135284;27;20415;-49
2022/01/25 09:23:17;;;;;;;;;;;;;;;10.54;77.10;103308.41;5134520;27;20237;-51
2022/01/25 09:25:43;;;;;;;;;;;;;;;10.61;77.13;103315.78;5135042;27;19954;-52
2022/01/25 09:28:08;;;;;;;;;;;;;;;10.61;76.76;103313.09;5116337;27;19954;-50
2022/01/25 09:30:34;;;;;;;;;;;;;;;10.63;74.12;103317.47;5135195;27;19916;-53
2022/01/25 09:32:59;;;;;;;;;;;;;;;10.66;74.19;103320.72;5134489;27;19973;-53
2022/01/25 09:35:25;;;;;;;;;;;;;;;10.64;75.22;103312.00;5116671;27;20309;-50
2022/01/25 09:37:51;;;;;;;;;;;;;;;10.56;76.17;103322.50;5134988;27;20290;-52
2022/01/25 09:40:17;;;;;;;;;;;;;;;10.61;74.22;103331.00;5149229;27;19910;-53
2022/01/25 09:42:42;;;;;;;;;;;;;;;10.62;73.33;103324.66;5155242;27;19922;-49
2022/01/25 09:45:08;;;;;;;;;;;;;;;10.54;74.03;103319.97;5148956;27;20032;-54
2022/01/25 09:47:36;;;;;;;;;;;;;;;10.50;73.30;103320.38;5150260;27;19931;-53
2022/01/25 09:50:01;;;;;;;;;;;;;;;10.47;75.32;103321.47;5154770;27;19917;-52
2022/01/25 09:52:27;;;;;;;;;;;;;;;10.52;74.27;103332.66;5136752;27;19915;-49
2022/01/25 09:54:54;;;;;;;;;;;;;;;10.59;74.08;103322.22;5154123;27;19919;-52
2022/01/25 09:57:19;;;;;;;;;;;;;;;10.60;74.23;103335.47;5154665;27;19919;-47
2022/01/25 09:59:45;;;;;;;;;;;;;;;10.38;74.39;103336.50;5155129;27;20013;-53
2022/01/25 10:02:10;;;;;;;;;;;;;;;10.27;75.28;103332.06;5153585;27;19925;-53
2022/01/25 10:04:39;;;;;;;;;;;;;;;10.39;75.28;103338.19;5154119;27;19918;-50
2022/01/25 10:07:05;;;;;;;;;;;;;;;10.52;75.71;103332.66;5153688;27;19914;-53
2022/01/25 10:09:31;;;;;;;;;;;;;;;10.34;76.98;103332.34;5154695;27;19922;-54
2022/01/25 10:11:57;;;;;;;;;;;;;;;10.49;76.55;103337.41;5154980;27;19923;-51
2022/01/25 10:14:27;;;;;;;;;;;;;;;10.45;76.01;103340.34;5136475;27;19942;-49
2022/01/25 10:16:54;;;;;;;;;;;;;;;10.43;75.45;103349.47;5149069;27;19919;-50
2022/01/25 10:19:23;;;;;;;;;;;;;;;10.43;74.06;103347.66;5119103;27;20314;-52
2022/01/25 10:21:51;;;;;;;;;;;;;;;10.56;73.19;103341.22;5136585;27;19922;-50
2022/01/25 10:24:16;;;;;;;;;;;;;;;10.62;73.31;103343.41;5135462;27;19919;-50
2022/01/25 10:26:42;;;;;;;;;;;;;;;10.53;73.98;103346.84;5154855;27;19963;-52
2022/01/25 10:29:08;;;;;;;;;;;;;;;10.68;72.54;103350.88;5136283;27;19915;-54
2022/01/25 10:31:36;;;;;;;;;;;;;;;10.64;73.54;103344.09;5154688;27;20057;-52
2022/01/25 10:34:01;;;;;;;;;;;;;;;10.47;75.11;103342.88;5146753;27;19926;-54
2022/01/25 10:36:27;;;;;;;;;;;;;;;10.37;74.02;103340.13;5146620;27;19923;-52
2022/01/25 10:38:54;;;;;;;;;;;;;;;10.71;71.97;103352.41;5141763;27;19919;-53
2022/01/25 10:41:21;;;;;;;;;;;;;;;10.86;70.03;103344.91;5144037;27;19915;-47
2022/01/25 10:43:47;;;;;;;;;;;;;;;10.85;70.47;103341.34;5140280;27;19930;-54
2022/01/25 10:46:23;;;;;;;;;;;;;;;10.67;70.90;103351.84;5144957;27;19960;-51
2022/01/25 10:48:51;;;;;;;;;;;;;;;10.67;70.52;103359.88;5126306;27;20006;-49
2022/01/25 10:51:20;;;;;;;;;;;;;;;10.61;70.91;103352.41;5126993;27;19919;-53
2022/01/25 10:53:55;;;;;;;;;;;;;;;10.63;71.54;103358.47;5135903;27;19999;-51
2022/01/25 10:56:22;;;;;;;;;;;;;;;10.68;71.13;103348.19;5138414;27;19915;-53
2022/01/25 10:58:47;;;;;;;;;;;;;;;10.55;71.45;103353.78;5142704;27;19942;-51
2022/01/25 11:01:13;;;;;;;;;;;;;;;10.55;73.12;103356.44;5127329;27;20371;-52
2022/01/25 11:03:42;;;;;;;;;;;;;;;10.72;72.22;103354.97;5126210;27;19920;-48
2022/01/25 11:06:15;;;;;;;;;;;;;;;10.86;72.31;103358.28;5144122;27;19985;-52
2022/01/25 11:08:42;;;;;;;;;;;;;;;11.00;69.30;103347.16;5121385;27;20349;-48
2022/01/25 11:11:10;;;;;;;;;;;;;;;11.09;69.14;103350.88;5135871;27;20404;-47
2022/01/25 11:13:39;;;;;;;;;;;;;;;11.15;68.55;103349.47;5144578;27;20005;-48
2022/01/25 11:16:05;;;;;;;;;;;;;;;10.97;69.88;103341.25;5139678;27;19919;-47
2022/01/25 11:18:31;;;;;;;;;;;;;;;11.00;70.04;103344.50;5143028;27;20313;-51
2022/01/25 11:20:58;;;;;;;;;;;;;;;11.11;68.73;103337.34;5146538;27;19919;-54
2022/01/25 11:23:24;;;;;;;;;;;;;;;11.06;69.18;103337.75;5144982;27;19968;-53
2022/01/25 11:25:49;;;;;;;;;;;;;;;11.07;68.77;103335.91;5147672;27;19919;-49
2022/01/25 11:28:15;;;;;;;;;;;;;;;11.21;68.66;103335.53;5146390;27;19920;-50
2022/01/25 11:30:41;;;;;;;;;;;;;;;11.18;68.37;103344.66;5145493;27;20011;-54
2022/01/25 11:33:09;;;;;;;;;;;;;;;11.12;68.83;103336.38;5124525;27;20034;-52
2022/01/25 11:35:36;;;;;;;;;;;;;;;11.21;67.97;103337.38;5140801;27;19994;-54
2022/01/25 11:38:01;;;;;;;;;;;;;;;11.26;68.56;103341.31;5145201;27;19929;-52
2022/01/25 11:40:30;;;;;;;;;;;;;;;11.17;69.63;103342.16;5147148;27;19919;-51
2022/01/25 11:43:00;;;;;;;;;;;;;;;11.17;69.90;103334.94;5137561;27;20055;-52
2022/01/25 11:45:27;;;;;;;;;;;;;;;11.19;69.75;103341.03;5137642;27;19914;-53
2022/01/25 11:47:53;;;;;;;;;;;;;;;11.15;69.66;103338.75;5157664;27;19918;-54
2022/01/25 11:50:19;;;;;;;;;;;;;;;11.24;69.59;103332.56;5157659;27;19914;-54
2022/01/25 11:52:48;;;;;;;;;;;;;;;11.10;71.47;103335.66;5156895;27;19917;-54
2022/01/25 11:55:19;;;;;;;;;;;;;;;11.17;71.15;103334.13;5157012;27;19915;-53
2022/01/25 11:57:51;;;;;;;;;;;;;;;11.14;71.69;103329.03;5157247;27;19919;-53
2022/01/25 12:00:20;;;;;;;;;;;;;;;11.16;71.95;103324.38;5124500;27;20027;-54
2022/01/25 12:02:49;;;;;;;;;;;;;;;10.98;74.19;103317.00;5136557;27;19946;-53
2022/01/25 12:05:18;;;;;;;;;;;;;;;10.90;74.71;103319.53;5136245;27;19915;-54
2022/01/25 12:08:01;;;;;;;;;;;;;;;11.12;74.07;103314.94;5135917;27;20397;-52
2022/01/25 12:10:30;;;;;;;;;;;;;;;11.10;73.21;103311.56;5136695;27;19916;-52
2022/01/25 12:13:12;;;;;;;;;;;;;;;11.04;72.35;103313.78;5136357;27;20372;-53
2022/01/25 12:15:37;;;;;;;;;;;;;;;11.18;72.58;103311.69;5136353;27;19922;-51
2022/01/25 12:18:03;;;;;;;;;;;;;;;11.12;72.51;103306.91;5117827;27;19916;-49
2022/01/25 12:20:28;;;;;;;;;;;;;;;11.24;71.58;103305.78;5138441;27;19937;-53
2022/01/25 12:23:04;;;;;;;;;;;;;;;11.29;71.82;103308.88;5138780;27;20373;-53
2022/01/25 12:25:46;;;;;;;;;;;;;;;11.24;71.08;103299.59;5135406;27;19919;-55
2022/01/25 12:28:21;;;;;;;;;;;;;;;11.16;70.38;103306.47;5144331;27;20260;-54
2022/01/25 12:30:47;;;;;;;;;;;;;;;11.23;69.24;103295.22;5144032;27;19972;-53
2022/01/25 12:33:25;;;;;;;;;;;;;;;11.23;69.23;103290.69;5144572;27;20018;-53
2022/01/25 12:35:54;;;;;;;;;;;;;;;10.99;71.26;103291.09;5145110;27;19923;-55
2022/01/25 12:38:19;;;;;;;;;;;;;;;10.83;71.49;103292.47;5142644;27;19960;-55
2022/01/25 12:40:51;;;;;;;;;;;;;;;10.99;71.12;103289.25;5140820;27;19919;-55
2022/01/25 12:43:20;;;;;;;;;;;;;;;10.80;72.02;103297.22;5144037;27;19922;-51
2022/01/25 12:45:58;;;;;;;;;;;;;;;10.79;72.26;103290.19;5144263;27;19923;-54
2022/01/25 12:48:27;;;;;;;;;;;;;;;10.47;74.14;103276.84;5145380;27;19961;-55
2022/01/25 12:50:54;;;;;;;;;;;;;;;10.53;75.37;103279.97;5142142;27;19915;-55
2022/01/25 12:53:21;;;;;;;;;;;;;;;10.75;73.76;103284.28;5146126;27;19951;-56
2022/01/25 12:55:48;;;;;;;;;;;;;;;10.93;73.41;103280.91;5109001;27;19918;-54
2022/01/25 12:58:14;;;;;;;;;;;;;;;11.00;74.12;103274.03;5143367;27;19959;-55
2022/01/25 13:00:41;;;;;;;;;;;;;;;10.76;74.19;103269.91;5136624;27;19922;-54
2022/01/25 13:03:09;;;;;;;;;;;;;;;10.72;74.51;103266.66;5140991;27;19915;-54
2022/01/25 13:05:39;;;;;;;;;;;;;;;10.54;75.58;103271.81;5140935;27;19970;-52
2022/01/25 13:08:18;;;;;;;;;;;;;;;10.72;74.67;103263.97;5144997;27;19941;-50
2022/01/25 13:10:44;;;;;;;;;;;;;;;10.65;75.54;103264.66;5143627;27;19915;-52
2022/01/25 13:13:21;;;;;;;;;;;;;;;10.69;76.52;103263.38;5125647;27;19923;-50
2022/01/25 13:18:13;;;;;;;;;;;;;;;10.89;76.31;103257.09;5144988;27;20286;-51
2022/01/25 13:20:41;;;;;;;;;;;;;;;10.97;75.96;103256.41;5146197;27;19954;-53
2022/01/25 13:23:07;;;;;;;;;;;;;;;10.94;74.60;103251.34;5143578;27;19918;-54
2022/01/25 13:25:52;;;;;;;;;;;;;;;11.01;73.74;103251.63;5145490;27;19915;-53
2022/01/25 13:28:52;;;;;;;;;;;;;;;10.94;74.52;103258.50;5147383;27;19947;-54
2022/01/25 13:31:11;;;;;;;;;;;;;;;10.93;75.18;103246.13;5147303;27;20071;-54
2022/01/25 13:33:37;;;;;;;;;;;;;;;10.89;75.37;103253.59;5142761;27;19915;-52
2022/01/25 13:36:03;;;;;;;;;;;;;;;10.97;75.47;103244.88;5140993;27;19915;-54
2022/01/25 13:38:34;;;;;;;;;;;;;;;10.98;74.94;103244.72;5140065;27;19949;-55
2022/01/25 13:41:15;;;;;;;;;;;;;;;10.94;75.02;103240.63;5140768;27;19998;-54
2022/01/25 13:46:21;;;;;;;;;;;;;;;11.10;73.61;103233.91;5139478;27;20386;-54
2022/01/25 13:48:47;;;;;;;;;;;;;;;11.17;73.28;103235.84;5143260;27;20106;-52
2022/01/25 13:51:15;;;;;;;;;;;;;;;11.16;73.39;103234.16;5142100;27;20052;-52
2022/01/25 13:53:40;;;;;;;;;;;;;;;11.00;75.03;103237.38;5107759;27;19919;-53
2022/01/25 13:56:08;;;;;;;;;;;;;;;10.94;76.60;103237.97;5123982;27;20071;-53
2022/01/25 13:58:35;;;;;;;;;;;;;;;10.82;76.98;103237.22;5141628;27;19966;-52
2022/01/25 14:01:02;;;;;;;;;;;;;;;10.80;76.98;103236.53;5142223;27;19919;-55
2022/01/25 14:03:30;;;;;;;;;;;;;;;10.88;77.43;103225.97;5135448;27;19915;-53
2022/01/25 14:05:55;;;;;;;;;;;;;;;10.92;75.59;103233.72;5135143;27;19915;-56
2022/01/25 14:08:32;;;;;;;;;;;;;;;10.85;75.95;103233.44;5154629;27;19922;-55
2022/01/25 14:11:00;;;;;;;;;;;;;;;10.92;74.82;103218.50;5142548;27;20013;-54
2022/01/25 14:21:58;;;;;;;;;;;;;;;10.80;73.82;103219.59;5138987;27;19919;-51
2022/01/25 14:24:31;;;;;;;;;;;;;;;10.56;75.92;103210.97;5116170;27;19923;-50
2022/01/25 14:26:58;;;;;;;;;;;;;;;10.62;76.26;103209.59;5141130;27;19959;-54
2022/01/25 14:29:24;;;;;;;;;;;;;;;10.66;76.05;103212.81;5144838;27;19919;-53
2022/01/25 14:31:50;;;;;;;;;;;;;;;10.67;77.33;103214.50;5146002;27;19969;-50
2022/01/25 14:34:17;;;;;;;;;;;;;;;10.63;77.43;103211.28;5148332;27;19954;-56
2022/01/25 14:36:47;;;;;;;;;;;;;;;10.57;78.31;103207.31;5146888;27;19967;-51